Time;durP1;ratioP1;P1;durP2;ratioP2;P2;SDS_P1;SDS_P2;PMS_P1;PMS_P2;Temp;Humidity;BMP_temperature;BMP_pressure;BME280_temperature;BME280_humidity;BME280_pressure;Samples;Min_cycle;Max_cycle;Signal;HPM_P1;HPM_P2
2023/12/29 00:01:18;;;;;;;0.20;0.20;;;;;;;4.73;100.00;96171.13;6167659;23;20055;-75
2023/12/29 00:04:04;;;;;;;0.20;0.20;;;;;;;4.74;100.00;96162.97;6165853;23;20317;-76
2023/12/29 00:06:50;;;;;;;0.20;0.20;;;;;;;4.77;100.00;96169.69;6169143;23;20057;-77
2023/12/29 00:09:38;;;;;;;0.30;0.30;;;;;;;4.90;100.00;96176.69;6166680;23;20115;-78
2023/12/29 00:12:24;;;;;;;0.20;0.20;;;;;;;4.97;100.00;96172.94;6169335;23;20033;-77
2023/12/29 00:15:10;;;;;;;0.10;0.10;;;;;;;5.01;100.00;96165.38;6170593;23;20021;-76
2023/12/29 00:17:56;;;;;;;0.20;0.20;;;;;;;5.12;100.00;96166.47;6167370;23;20064;-77
2023/12/29 00:20:41;;;;;;;0.10;0.10;;;;;;;5.08;100.00;96163.44;6169053;23;20452;-79
2023/12/29 00:23:27;;;;;;;0.20;0.20;;;;;;;5.09;100.00;96164.25;6169512;23;20444;-78
2023/12/29 00:26:16;;;;;;;0.25;0.25;;;;;;;5.17;100.00;96162.13;6168236;23;20020;-76
2023/12/29 00:29:03;;;;;;;0.20;0.20;;;;;;;5.18;100.00;96169.03;6166995;23;20025;-76
2023/12/29 00:31:49;;;;;;;0.20;0.20;;;;;;;5.26;100.00;96181.19;6167353;23;20344;-76
2023/12/29 00:34:37;;;;;;;0.20;0.20;;;;;;;5.34;100.00;96164.97;6147460;23;20017;-76
2023/12/29 00:37:23;;;;;;;0.20;0.20;;;;;;;5.35;100.00;96171.91;6169191;23;20024;-76
2023/12/29 00:40:09;;;;;;;0.20;0.20;;;;;;;5.44;100.00;96180.38;6169859;23;20029;-75
2023/12/29 00:42:55;;;;;;;0.20;0.20;;;;;;;5.44;100.00;96183.84;6146239;23;20091;-77
2023/12/29 00:45:41;;;;;;;0.20;0.20;;;;;;;5.52;100.00;96196.81;6170216;23;20360;-80
2023/12/29 00:48:27;;;;;;;0.20;0.20;;;;;;;5.50;100.00;96188.25;6168454;23;20031;-76
2023/12/29 00:51:12;;;;;;;0.20;0.20;;;;;;;5.55;100.00;96184.94;6148771;23;20619;-75
2023/12/29 00:53:58;;;;;;;0.28;0.28;;;;;;;5.61;100.00;96188.56;6167377;23;20017;-77
2023/12/29 00:56:49;;;;;;;0.20;0.20;;;;;;;5.64;100.00;96182.78;6169947;23;20060;-75
2023/12/29 00:59:40;;;;;;;0.20;0.20;;;;;;;5.63;100.00;96166.06;6168526;23;20648;-74
2023/12/29 01:02:27;;;;;;;0.20;0.20;;;;;;;5.69;100.00;96165.16;6165976;23;20028;-75
2023/12/29 01:05:20;;;;;;;0.15;0.15;;;;;;;5.63;100.00;96151.97;6169502;23;20431;-75
2023/12/29 01:08:06;;;;;;;0.20;0.20;;;;;;;5.60;100.00;96150.56;6167818;23;20025;-76
2023/12/29 01:10:52;;;;;;;0.10;0.10;;;;;;;5.62;100.00;96151.16;6167287;23;20021;-75
2023/12/29 01:13:38;;;;;;;0.20;0.20;;;;;;;5.64;100.00;96154.41;6145929;23;20554;-74
2023/12/29 01:16:24;;;;;;;0.20;0.20;;;;;;;5.58;100.00;96145.47;6147190;23;20423;-75
2023/12/29 01:19:10;;;;;;;0.10;0.10;;;;;;;5.63;100.00;96146.66;6169229;23;20033;-77
2023/12/29 01:21:56;;;;;;;0.20;0.20;;;;;;;5.65;100.00;96137.44;6145802;23;20029;-74
2023/12/29 01:24:42;;;;;;;0.20;0.20;;;;;;;5.63;100.00;96136.06;6146224;23;20546;-77
2023/12/29 01:27:31;;;;;;;0.20;0.20;;;;;;;5.57;100.00;96125.28;6169946;23;20020;-76
2023/12/29 01:30:17;;;;;;;0.20;0.20;;;;;;;5.61;100.00;96116.91;6146398;23;20016;-77
2023/12/29 01:33:03;;;;;;;0.20;0.20;;;;;;;5.47;100.00;96118.91;6164768;23;20021;-75
2023/12/29 01:35:49;;;;;;;0.20;0.20;;;;;;;5.34;100.00;96106.59;6167398;23;20087;-75
2023/12/29 01:38:35;;;;;;;0.20;0.20;;;;;;;5.30;100.00;96100.16;6170079;23;20032;-75
2023/12/29 01:41:21;;;;;;;0.30;0.30;;;;;;;5.24;100.00;96109.00;6168060;23;20024;-75
2023/12/29 01:44:21;;;;;;;0.20;0.20;;;;;;;5.19;100.00;96122.91;6168027;23;20803;-75
2023/12/29 01:47:16;;;;;;;0.20;0.20;;;;;;;5.24;100.00;96107.16;6146358;23;20025;-77
2023/12/29 01:50:02;;;;;;;0.20;0.20;;;;;;;5.38;100.00;96115.75;6146019;23;20480;-76
2023/12/29 01:52:50;;;;;;;0.13;0.13;;;;;;;5.43;100.00;96123.84;6168605;23;20024;-76
2023/12/29 01:55:37;;;;;;;0.20;0.20;;;;;;;5.47;100.00;96105.63;6145827;23;20047;-76
2023/12/29 01:58:23;;;;;;;0.20;0.20;;;;;;;5.52;100.00;96127.78;6144947;23;20025;-77
2023/12/29 02:01:09;;;;;;;0.20;0.20;;;;;;;5.55;100.00;96114.09;6147192;23;20112;-75
2023/12/29 02:03:56;;;;;;;0.10;0.10;;;;;;;5.62;100.00;96118.50;6145209;23;20028;-75
2023/12/29 02:06:42;;;;;;;0.20;0.20;;;;;;;5.64;100.00;96106.63;6145762;23;20028;-77
2023/12/29 02:09:28;;;;;;;0.20;0.20;;;;;;;5.62;100.00;96108.69;6146287;23;20020;-75
2023/12/29 02:12:14;;;;;;;0.20;0.20;;;;;;;5.59;100.00;96098.50;6168486;23;20395;-75
2023/12/29 02:15:00;;;;;;;0.17;0.17;;;;;;;5.62;100.00;96100.75;6145484;23;20695;-76
2023/12/29 02:18:03;;;;;;;0.20;0.20;;;;;;;5.62;100.00;96100.75;6166550;23;20049;-75
2023/12/29 02:20:48;;;;;;;0.17;0.17;;;;;;;5.65;100.00;96102.13;6168141;23;20056;-75
2023/12/29 02:23:35;;;;;;;0.10;0.10;;;;;;;5.62;100.00;96098.09;6144869;23;20385;-75
2023/12/29 02:26:26;;;;;;;0.10;0.10;;;;;;;5.66;100.00;96091.28;6168186;23;20024;-76
2023/12/29 02:29:14;;;;;;;0.13;0.13;;;;;;;5.56;100.00;96091.81;6146833;23;20051;-77
2023/12/29 02:32:04;;;;;;;0.13;0.13;;;;;;;5.56;100.00;96094.47;6164157;23;20029;-76
2023/12/29 02:34:52;;;;;;;0.20;0.20;;;;;;;5.45;100.00;96097.09;6166650;23;20096;-77
2023/12/29 02:37:39;;;;;;;0.20;0.20;;;;;;;5.51;100.00;96091.69;6167301;23;20338;-75
2023/12/29 02:40:25;;;;;;;0.20;0.20;;;;;;;5.53;100.00;96088.81;6146959;23;20048;-77
2023/12/29 02:43:11;;;;;;;0.20;0.20;;;;;;;5.55;100.00;96089.41;6167463;23;20597;-75
2023/12/29 02:45:57;;;;;;;0.10;0.10;;;;;;;5.56;100.00;96078.56;6145638;23;20049;-75
2023/12/29 02:48:47;;;;;;;0.10;0.10;;;;;;;5.54;100.00;96082.47;6168384;23;20051;-75
2023/12/29 02:51:32;;;;;;;0.20;0.20;;;;;;;5.51;100.00;96083.72;6170231;23;20420;-74
2023/12/29 02:54:18;;;;;;;0.20;0.20;;;;;;;5.60;100.00;96076.25;6169006;23;20060;-74
2023/12/29 02:57:06;;;;;;;0.20;0.20;;;;;;;5.56;100.00;96067.13;6126694;23;20095;-76
2023/12/29 02:59:52;;;;;;;0.20;0.20;;;;;;;5.59;100.00;96064.00;6146016;23;20476;-77
2023/12/29 03:02:37;;;;;;;0.20;0.20;;;;;;;5.57;100.00;96066.91;6169905;23;20024;-75
2023/12/29 03:05:23;;;;;;;0.15;0.15;;;;;;;5.57;100.00;96050.16;6170557;23;20190;-75
2023/12/29 03:08:09;;;;;;;0.20;0.20;;;;;;;5.67;100.00;96053.06;6146002;23;20028;-73
2023/12/29 03:10:55;;;;;;;0.20;0.20;;;;;;;5.67;100.00;96071.66;6167605;23;20464;-74
2023/12/29 03:13:41;;;;;;;0.20;0.20;;;;;;;5.72;100.00;96061.16;6168848;23;20480;-77
2023/12/29 03:16:27;;;;;;;0.30;0.30;;;;;;;5.76;100.00;96059.69;6146320;23;20020;-75
2023/12/29 03:19:13;;;;;;;0.20;0.20;;;;;;;5.77;100.00;96060.50;6147307;23;20087;-76
2023/12/29 03:21:58;;;;;;;0.20;0.20;;;;;;;5.81;100.00;96070.41;6168422;23;20071;-76
2023/12/29 03:24:44;;;;;;;0.30;0.30;;;;;;;5.79;100.00;96069.84;6168396;23;20028;-75
2023/12/29 03:27:30;;;;;;;0.20;0.20;;;;;;;5.82;100.00;96085.31;6146047;23;20021;-75
2023/12/29 03:30:16;;;;;;;0.20;0.20;;;;;;;5.83;100.00;96073.66;6168095;23;20025;-76
2023/12/29 03:33:03;;;;;;;0.20;0.20;;;;;;;5.82;100.00;96069.38;6145118;23;20017;-74
2023/12/29 03:35:49;;;;;;;0.20;0.20;;;;;;;5.79;100.00;96053.91;6147862;23;20392;-75
2023/12/29 03:38:36;;;;;;;0.20;0.20;;;;;;;5.81;100.00;96051.84;6167845;23;20084;-75
2023/12/29 03:41:22;;;;;;;0.30;0.30;;;;;;;5.80;100.00;96060.84;6169709;23;20021;-75
2023/12/29 03:44:08;;;;;;;0.20;0.20;;;;;;;5.81;100.00;96049.19;6147115;23;20025;-77
2023/12/29 03:46:53;;;;;;;0.30;0.30;;;;;;;5.85;100.00;96053.00;6148096;23;20017;-75
2023/12/29 03:49:39;;;;;;;0.30;0.30;;;;;;;5.84;100.00;96046.09;6148022;23;20067;-74
2023/12/29 03:52:25;;;;;;;0.20;0.20;;;;;;;5.82;100.00;96037.50;6167184;23;20052;-74
2023/12/29 03:55:11;;;;;;;0.20;0.20;;;;;;;5.83;100.00;96039.13;6147886;23;20022;-74
2023/12/29 03:58:01;;;;;;;0.20;0.20;;;;;;;5.76;100.00;96043.75;6166137;23;20080;-75
2023/12/29 04:00:47;;;;;;;0.20;0.20;;;;;;;5.76;100.00;96021.72;6161538;23;20112;-74
2023/12/29 04:03:34;;;;;;;0.20;0.20;;;;;;;5.69;100.00;96015.69;6116871;23;20022;-74
2023/12/29 04:06:19;;;;;;;0.20;0.20;;;;;;;5.67;100.00;96021.22;6117173;23;20419;-73
2023/12/29 04:09:05;;;;;;;0.20;0.20;;;;;;;5.65;100.00;96007.34;6137906;23;20033;-75
2023/12/29 04:11:51;;;;;;;0.20;0.20;;;;;;;5.65;100.00;96001.25;6115199;23;20028;-76
2023/12/29 04:14:37;;;;;;;0.10;0.10;;;;;;;5.56;100.00;95993.63;6138940;23;20779;-74
2023/12/29 04:17:23;;;;;;;0.20;0.20;;;;;;;5.46;100.00;95987.25;6139622;23;20100;-76
2023/12/29 04:20:09;;;;;;;0.20;0.20;;;;;;;5.44;100.00;96003.38;6138719;23;20076;-74
2023/12/29 04:22:55;;;;;;;0.20;0.20;;;;;;;5.43;100.00;96006.28;6138291;23;20364;-75
2023/12/29 04:25:43;;;;;;;0.22;0.22;;;;;;;5.49;100.00;96000.88;6140643;23;20021;-77
2023/12/29 04:28:29;;;;;;;0.20;0.20;;;;;;;5.63;100.00;96021.91;6138841;23;20032;-77
2023/12/29 04:31:16;;;;;;;0.20;0.20;;;;;;;5.67;100.00;96023.88;6131061;23;20099;-75
2023/12/29 04:34:02;;;;;;;0.20;0.20;;;;;;;5.69;100.00;95992.59;6146255;23;20674;-75
2023/12/29 04:36:48;;;;;;;0.20;0.20;;;;;;;5.78;100.00;96009.00;6169079;23;20521;-78
2023/12/29 04:39:36;;;;;;;0.20;0.20;;;;;;;5.74;100.00;95994.56;6169093;23;20036;-76
2023/12/29 04:42:21;;;;;;;0.20;0.20;;;;;;;5.77;100.00;96000.25;6147117;23;20017;-76
2023/12/29 04:45:08;;;;;;;0.20;0.20;;;;;;;5.79;100.00;96010.63;6145386;23;20526;-77
2023/12/29 04:47:54;;;;;;;0.20;0.20;;;;;;;5.79;100.00;96011.44;6167668;23;20024;-77
2023/12/29 04:50:39;;;;;;;0.20;0.20;;;;;;;5.80;100.00;96017.53;6166445;23;20258;-77
2023/12/29 04:53:25;;;;;;;0.20;0.20;;;;;;;5.87;100.00;96011.09;6145282;23;20407;-77
2023/12/29 04:56:11;;;;;;;0.20;0.20;;;;;;;5.92;100.00;96026.38;6167467;23;20048;-75
2023/12/29 04:58:59;;;;;;;0.20;0.20;;;;;;;5.95;100.00;96011.81;6165104;23;20028;-77
2023/12/29 05:01:44;;;;;;;0.20;0.20;;;;;;;5.85;100.00;96015.84;6148965;23;20025;-78
2023/12/29 05:04:30;;;;;;;0.20;0.20;;;;;;;5.87;100.00;96002.31;6140180;23;20021;-75
2023/12/29 05:07:16;;;;;;;0.20;0.20;;;;;;;5.85;100.00;96010.53;6139489;23;20021;-76
2023/12/29 05:10:03;;;;;;;0.10;0.10;;;;;;;5.80;100.00;96015.69;6140197;23;20045;-75
2023/12/29 05:12:49;;;;;;;0.20;0.20;;;;;;;5.83;100.00;96011.75;6139574;23;20026;-75
2023/12/29 05:15:37;;;;;;;0.38;0.30;;;;;;;5.73;100.00;96003.56;6119732;23;20100;-75
2023/12/29 05:18:23;;;;;;;0.13;0.13;;;;;;;5.75;100.00;95996.97;6140286;23;20476;-77
2023/12/29 05:21:16;;;;;;;0.20;0.20;;;;;;;5.81;100.00;96008.53;6118713;23;20032;-77
2023/12/29 05:24:04;;;;;;;0.20;0.20;;;;;;;5.72;100.00;96005.41;6138266;23;20021;-78
2023/12/29 05:26:49;;;;;;;0.10;0.10;;;;;;;5.77;100.00;96002.09;6141055;23;20076;-77
2023/12/29 05:29:35;;;;;;;0.20;0.20;;;;;;;5.73;100.00;96009.69;6119742;23;20246;-76
2023/12/29 05:32:21;;;;;;;0.10;0.10;;;;;;;5.77;100.00;96020.66;6119297;23;20357;-76
2023/12/29 05:35:07;;;;;;;0.20;0.20;;;;;;;5.73;100.00;96017.66;6140332;23;20052;-76
2023/12/29 05:37:53;;;;;;;0.20;0.20;;;;;;;5.75;100.00;96010.25;6141667;23;20025;-75
2023/12/29 05:40:39;;;;;;;0.20;0.20;;;;;;;5.74;100.00;96000.69;6142541;23;20022;-75
2023/12/29 05:43:26;;;;;;;0.20;0.20;;;;;;;5.67;100.00;95989.34;6141719;23;20033;-77
2023/12/29 05:46:12;;;;;;;0.20;0.20;;;;;;;5.61;100.00;96002.75;6120762;23;20021;-78
2023/12/29 05:48:58;;;;;;;0.15;0.15;;;;;;;5.48;100.00;95993.94;6139237;23;20087;-77
2023/12/29 05:51:44;;;;;;;0.20;0.20;;;;;;;5.48;100.00;96001.91;6142187;23;20024;-76
2023/12/29 05:54:30;;;;;;;0.20;0.20;;;;;;;5.48;100.00;96009.88;6118918;23;20025;-75
2023/12/29 05:57:16;;;;;;;0.15;0.15;;;;;;;5.48;100.00;96017.84;6138744;23;20042;-77
2023/12/29 06:00:03;;;;;;;0.15;0.15;;;;;;;5.51;100.00;96025.31;6141560;23;20100;-76
2023/12/29 06:02:57;;;;;;;0.30;0.30;;;;;;;5.62;100.00;96021.09;6139355;23;20325;-76
2023/12/29 06:05:43;;;;;;;0.20;0.20;;;;;;;5.69;100.00;96016.50;6139480;23;20033;-76
2023/12/29 06:08:29;;;;;;;0.20;0.20;;;;;;;5.76;100.00;96027.03;6139308;23;20025;-76
2023/12/29 06:11:16;;;;;;;0.30;0.30;;;;;;;5.73;100.00;96028.28;6139184;23;20032;-75
2023/12/29 06:14:03;;;;;;;0.10;0.10;;;;;;;5.77;100.00;96037.41;6118714;23;20374;-76
2023/12/29 06:16:49;;;;;;;0.20;0.20;;;;;;;5.77;100.00;96029.44;6140048;23;20025;-75
2023/12/29 06:19:35;;;;;;;0.20;0.20;;;;;;;5.83;100.00;96036.47;6140272;23;20132;-77
2023/12/29 06:22:21;;;;;;;0.20;0.20;;;;;;;5.85;100.00;96050.34;6140310;23;20175;-76
2023/12/29 06:25:11;;;;;;;0.20;0.20;;;;;;;5.90;100.00;96056.81;6139262;23;20397;-76
2023/12/29 06:27:57;;;;;;;0.10;0.10;;;;;;;5.91;100.00;96055.81;6118322;23;20026;-77
2023/12/29 06:30:43;;;;;;;0.20;0.20;;;;;;;5.90;100.00;96057.63;6139584;23;20056;-77
2023/12/29 06:33:29;;;;;;;0.20;0.20;;;;;;;5.92;100.00;96068.06;6140584;23;20414;-78
2023/12/29 06:36:15;;;;;;;0.17;0.17;;;;;;;5.88;100.00;96065.00;6139711;23;20490;-78
2023/12/29 06:39:01;;;;;;;0.20;0.20;;;;;;;5.91;100.00;96066.41;6141518;23;20026;-78
2023/12/29 06:41:46;;;;;;;0.30;0.30;;;;;;;5.77;100.00;96050.69;6139798;23;20188;-76
2023/12/29 06:44:32;;;;;;;0.17;0.17;;;;;;;5.82;100.00;96042.81;6140030;23;20013;-77
2023/12/29 06:47:18;;;;;;;0.20;0.20;;;;;;;5.83;100.00;96054.25;6138832;23;20313;-78
2023/12/29 06:50:06;;;;;;;0.25;0.25;;;;;;;5.74;100.00;96045.81;6138634;23;20060;-77
2023/12/29 06:52:51;;;;;;;0.20;0.20;;;;;;;5.54;100.00;96035.50;6140083;23;20064;-76
2023/12/29 06:55:37;;;;;;;0.20;0.20;;;;;;;5.68;100.00;96044.09;6138670;23;20052;-75
2023/12/29 06:58:23;;;;;;;0.20;0.20;;;;;;;5.63;100.00;96043.94;6116503;23;20452;-76
2023/12/29 07:01:09;;;;;;;0.10;0.10;;;;;;;5.64;100.00;96045.56;6149697;23;20067;-76
2023/12/29 07:03:55;;;;;;;0.20;0.20;;;;;;;5.58;100.00;96046.47;6168332;23;20104;-76
2023/12/29 07:06:41;;;;;;;0.20;0.20;;;;;;;5.59;100.00;96043.59;6148762;23;20025;-76
2023/12/29 07:09:27;;;;;;;0.20;0.20;;;;;;;5.66;100.00;96038.19;6169276;23;20020;-75
2023/12/29 07:12:13;;;;;;;0.20;0.20;;;;;;;5.72;100.00;96045.25;6168157;23;20100;-77
2023/12/29 07:14:59;;;;;;;0.30;0.30;;;;;;;5.61;100.00;96039.91;6145856;23;20526;-75
2023/12/29 07:17:45;;;;;;;0.30;0.30;;;;;;;5.69;100.00;96042.25;6167698;23;20811;-75
2023/12/29 07:20:31;;;;;;;0.20;0.20;;;;;;;5.67;100.00;96050.41;6169249;23;20100;-75
2023/12/29 07:23:17;;;;;;;0.20;0.20;;;;;;;5.70;100.00;96054.47;6166594;23;20021;-78
2023/12/29 07:26:06;;;;;;;0.20;0.20;;;;;;;5.73;100.00;96049.50;6167746;23;20087;-75
2023/12/29 07:28:54;;;;;;;0.20;0.20;;;;;;;5.68;100.00;96048.56;6169259;23;20060;-75
2023/12/29 07:31:40;;;;;;;0.20;0.20;;;;;;;5.69;100.00;96043.06;6149650;23;20405;-73
2023/12/29 07:34:27;;;;;;;0.17;0.17;;;;;;;5.72;100.00;96052.41;6141468;23;20473;-74
2023/12/29 07:37:12;;;;;;;0.20;0.20;;;;;;;5.73;100.00;96041.53;6140571;23;20021;-73
2023/12/29 07:39:58;;;;;;;0.20;0.20;;;;;;;5.73;100.00;96038.88;6141161;23;20025;-75
2023/12/29 07:42:46;;;;;;;0.25;0.25;;;;;;;5.77;100.00;96037.41;6141560;23;20021;-74
2023/12/29 07:45:32;;;;;;;0.20;0.20;;;;;;;5.80;100.00;96039.59;6141190;23;20732;-74
2023/12/29 07:48:18;;;;;;;0.20;0.20;;;;;;;5.72;100.00;96026.66;6140650;23;20348;-76
2023/12/29 07:51:05;;;;;;;0.20;0.20;;;;;;;5.69;100.00;96028.97;6140677;23;20084;-77
2023/12/29 07:53:51;;;;;;;0.20;0.20;;;;;;;5.62;100.00;96036.22;6139178;23;20075;-77
2023/12/29 07:56:37;;;;;;;0.22;0.22;;;;;;;5.58;100.00;96010.13;6140990;23;20363;-75
2023/12/29 07:59:23;;;;;;;0.20;0.20;;;;;;;5.65;100.00;96030.44;6141539;23;20037;-75
2023/12/29 08:02:09;;;;;;;0.20;0.20;;;;;;;5.65;100.00;96015.31;6138915;23;20105;-75
2023/12/29 08:04:55;;;;;;;0.20;0.20;;;;;;;5.73;100.00;96022.97;6137167;23;20026;-74
2023/12/29 08:07:41;;;;;;;0.20;0.20;;;;;;;5.65;100.00;96017.97;6141155;23;20047;-75
2023/12/29 08:10:26;;;;;;;0.20;0.20;;;;;;;5.75;100.00;96020.88;6139824;23;20072;-73
2023/12/29 08:13:12;;;;;;;0.20;0.20;;;;;;;5.84;100.00;96024.03;6122479;23;20364;-74
2023/12/29 08:15:58;;;;;;;0.20;0.20;;;;;;;5.82;100.00;96018.94;6139142;23;20447;-74
2023/12/29 08:18:46;;;;;;;0.20;0.20;;;;;;;5.94;100.00;96015.53;6140878;23;20471;-74
2023/12/29 08:21:32;;;;;;;0.20;0.20;;;;;;;5.87;100.00;96028.88;6142245;23;20088;-76
2023/12/29 08:24:19;;;;;;;0.20;0.20;;;;;;;5.98;100.00;96016.66;6140693;23;20025;-74
2023/12/29 08:27:05;;;;;;;0.30;0.30;;;;;;;6.03;100.00;96022.09;6139109;23;20029;-74
2023/12/29 08:29:51;;;;;;;0.20;0.20;;;;;;;6.14;100.00;96027.41;6142797;23;20025;-75
2023/12/29 08:32:37;;;;;;;0.20;0.20;;;;;;;6.13;100.00;96014.38;6150436;23;20021;-77
2023/12/29 08:35:22;;;;;;;0.20;0.20;;;;;;;6.15;100.00;96030.91;6172303;23;20059;-74
2023/12/29 08:38:08;;;;;;;0.30;0.30;;;;;;;6.19;100.00;96018.75;6147878;23;20032;-76
2023/12/29 08:40:54;;;;;;;0.20;0.20;;;;;;;6.26;100.00;96016.78;6172827;23;20032;-75
2023/12/29 08:43:40;;;;;;;0.30;0.30;;;;;;;6.31;100.00;96014.25;6169596;23;20031;-75
2023/12/29 08:46:26;;;;;;;0.20;0.20;;;;;;;6.29;100.00;96018.97;6172717;23;20111;-76
2023/12/29 08:49:12;;;;;;;0.20;0.20;;;;;;;6.27;100.00;96021.06;6169873;23;20124;-76
2023/12/29 08:51:58;;;;;;;0.28;0.28;;;;;;;6.30;100.00;96015.31;6171909;23;20024;-77
2023/12/29 08:54:44;;;;;;;0.20;0.20;;;;;;;6.29;100.00;96008.34;6170722;23;20104;-77
2023/12/29 08:57:31;;;;;;;0.20;0.20;;;;;;;6.35;100.00;96023.38;6171995;23;20048;-76
2023/12/29 09:00:17;;;;;;;0.20;0.20;;;;;;;6.47;100.00;95996.00;6170087;23;20464;-75
2023/12/29 09:03:03;;;;;;;0.30;0.30;;;;;;;6.47;100.00;96001.31;6149599;23;20079;-75
2023/12/29 09:05:49;;;;;;;0.30;0.30;;;;;;;6.48;100.00;96017.03;6147375;23;20372;-76
2023/12/29 09:08:35;;;;;;;0.20;0.20;;;;;;;6.43;100.00;96000.94;6147154;23;20486;-76
2023/12/29 09:11:21;;;;;;;0.30;0.30;;;;;;;6.48;100.00;96021.53;6149190;23;20025;-77
2023/12/29 09:14:08;;;;;;;0.10;0.10;;;;;;;6.46;100.00;96004.97;6163779;23;20040;-75
2023/12/29 09:16:53;;;;;;;0.20;0.20;;;;;;;6.44;100.00;96023.81;6169168;23;20094;-75
2023/12/29 09:19:39;;;;;;;0.20;0.20;;;;;;;6.46;100.00;96013.78;6165676;23;20035;-77
2023/12/29 09:22:25;;;;;;;0.20;0.20;;;;;;;6.49;100.00;96017.81;6147741;23;20317;-79
2023/12/29 09:25:11;;;;;;;0.22;0.22;;;;;;;6.43;100.00;96012.38;6169077;23;20036;-75
2023/12/29 09:27:57;;;;;;;0.20;0.20;;;;;;;6.50;100.00;96036.19;6169013;23;20016;-77
2023/12/29 09:30:43;;;;;;;0.20;0.20;;;;;;;6.54;100.00;96036.56;6169219;23;20021;-75
2023/12/29 09:33:29;;;;;;;0.20;0.20;;;;;;;6.50;100.00;96017.59;6171354;23;20021;-75
2023/12/29 09:36:15;;;;;;;0.20;0.20;;;;;;;6.50;100.00;96032.72;6169743;23;20025;-75
2023/12/29 09:39:00;;;;;;;0.20;0.20;;;;;;;6.51;100.00;96037.00;6125106;23;20092;-75
2023/12/29 09:41:50;;;;;;;0.20;0.20;;;;;;;6.53;100.00;96035.72;6170785;23;20131;-77
2023/12/29 09:44:36;;;;;;;0.20;0.20;;;;;;;6.62;100.00;96046.84;6169705;23;20138;-74
2023/12/29 09:47:23;;;;;;;0.30;0.30;;;;;;;6.56;100.00;96063.72;6147927;23;20031;-76
2023/12/29 09:50:13;;;;;;;0.20;0.20;;;;;;;6.61;100.00;96064.59;6171069;23;20028;-77
2023/12/29 09:53:01;;;;;;;0.20;0.20;;;;;;;6.62;100.00;96046.84;6170860;23;20024;-76
2023/12/29 09:55:51;;;;;;;0.20;0.20;;;;;;;6.66;100.00;96059.41;6168480;23;20028;-77
2023/12/29 09:58:38;;;;;;;0.20;0.20;;;;;;;6.69;100.00;96052.81;6169760;23;20347;-74
2023/12/29 10:01:27;;;;;;;0.20;0.20;;;;;;;6.58;100.00;96050.97;6169063;23;20083;-75
2023/12/29 10:04:13;;;;;;;0.20;0.20;;;;;;;6.74;100.00;96047.59;6171156;23;20024;-76
2023/12/29 10:07:04;;;;;;;0.20;0.20;;;;;;;6.69;100.00;96045.66;6171453;23;20024;-76
2023/12/29 10:09:52;;;;;;;0.20;0.20;;;;;;;6.73;100.00;96053.97;6170244;23;20430;-76
2023/12/29 10:12:39;;;;;;;0.30;0.30;;;;;;;6.75;100.00;96056.38;6171256;23;20025;-75
2023/12/29 10:15:57;;;;;;;0.20;0.20;;;;;;;6.61;100.00;96058.47;6169535;23;20296;-75
2023/12/29 10:18:56;;;;;;;0.30;0.30;;;;;;;6.68;100.00;96059.97;6168578;23;20168;-75
2023/12/29 10:22:34;;;;;;;0.22;0.22;;;;;;;6.66;100.00;96037.34;6169628;23;20021;-76
2023/12/29 10:25:22;;;;;;;0.20;0.20;;;;;;;6.70;100.00;96051.78;6055761;23;20066;-75
2023/12/29 10:28:10;;;;;;;0.25;0.25;;;;;;;6.80;100.00;96049.34;6169247;23;20021;-75
2023/12/29 10:30:55;;;;;;;0.30;0.30;;;;;;;6.65;100.00;96051.66;6169300;23;20112;-75
2023/12/29 10:33:41;;;;;;;0.20;0.20;;;;;;;6.70;100.00;96038.50;6169638;23;20031;-76
2023/12/29 10:36:27;;;;;;;0.20;0.20;;;;;;;6.81;100.00;96042.16;6171407;23;20021;-75
2023/12/29 10:39:13;;;;;;;0.20;0.20;;;;;;;6.76;100.00;96034.06;6129775;23;20451;-77
2023/12/29 10:42:07;;;;;;;0.20;0.20;;;;;;;6.66;100.00;96061.25;6169363;23;20021;-77
2023/12/29 10:45:07;;;;;;;0.20;0.20;;;;;;;6.69;100.00;96048.31;6167497;23;20108;-77
2023/12/29 10:47:53;;;;;;;0.28;0.28;;;;;;;6.81;100.00;96044.81;6170911;23;20021;-76
2023/12/29 10:50:45;;;;;;;0.20;0.20;;;;;;;6.91;100.00;96039.69;6171475;23;20396;-77
2023/12/29 10:53:32;;;;;;;0.20;0.20;;;;;;;6.93;100.00;96033.13;6171115;23;20021;-76
2023/12/29 10:56:22;;;;;;;0.35;0.30;;;;;;;6.93;100.00;96038.44;6146867;23;20344;-76
2023/12/29 10:59:08;;;;;;;0.30;0.30;;;;;;;6.88;100.00;96030.34;6168234;23;20029;-76
2023/12/29 11:01:56;;;;;;;0.30;0.30;;;;;;;6.96;100.00;96069.88;6169495;23;20412;-76
2023/12/29 11:04:42;;;;;;;0.30;0.30;;;;;;;7.03;100.00;96047.66;6170436;23;20017;-75
2023/12/29 11:07:35;;;;;;;0.22;0.22;;;;;;;7.04;100.00;96038.63;6171176;23;20368;-76
2023/12/29 11:10:22;;;;;;;0.25;0.25;;;;;;;6.97;100.00;96033.44;6171623;23;20025;-77
2023/12/29 11:13:10;;;;;;;0.20;0.20;;;;;;;6.86;100.00;96027.13;6170125;23;20032;-76
2023/12/29 11:15:57;;;;;;;0.20;0.20;;;;;;;6.73;100.00;96037.22;6170993;23;20328;-76
2023/12/29 11:18:46;;;;;;;0.20;0.20;;;;;;;6.85;100.00;96048.66;6173050;23;20032;-76
2023/12/29 11:21:34;;;;;;;0.20;0.20;;;;;;;6.81;100.00;96037.66;6170549;23;20021;-75
2023/12/29 11:24:21;;;;;;;0.30;0.30;;;;;;;6.86;100.00;96037.75;6169571;23;20396;-76
2023/12/29 11:27:07;;;;;;;0.20;0.20;;;;;;;6.88;100.00;96033.00;6149449;23;20460;-76
2023/12/29 11:29:53;;;;;;;0.20;0.20;;;;;;;6.98;100.00;96035.06;6169777;23;20017;-76
2023/12/29 11:32:57;;;;;;;0.30;0.30;;;;;;;6.93;100.00;96046.44;6171717;23;20017;-76
2023/12/29 11:36:04;;;;;;;0.20;0.20;;;;;;;6.84;100.00;96049.66;6175259;23;20029;-76
2023/12/29 11:39:02;;;;;;;0.20;0.20;;;;;;;6.80;100.00;96040.56;6131235;23;20485;-76
2023/12/29 11:42:07;;;;;;;0.20;0.20;;;;;;;6.84;100.00;96025.72;6171220;23;20024;-77
2023/12/29 11:44:52;;;;;;;0.20;0.20;;;;;;;6.95;100.00;96033.69;6170276;23;20442;-77
2023/12/29 11:47:39;;;;;;;0.20;0.20;;;;;;;6.98;100.00;96027.88;6172497;23;20075;-75
2023/12/29 11:50:32;;;;;;;0.20;0.20;;;;;;;7.13;100.00;96035.34;6151786;23;20083;-75
2023/12/29 11:53:32;;;;;;;0.20;0.20;;;;;;;7.08;100.00;96032.63;6172070;23;20454;-75
2023/12/29 11:56:18;;;;;;;0.20;0.20;;;;;;;7.24;100.00;96036.38;6170823;23;20060;-77
2023/12/29 11:59:20;;;;;;;0.20;0.20;;;;;;;7.35;100.00;96024.06;6147415;23;20028;-77
2023/12/29 12:02:25;;;;;;;0.20;0.20;;;;;;;7.37;100.00;96016.63;6149726;23;20045;-75
2023/12/29 12:05:12;;;;;;;0.20;0.20;;;;;;;7.58;100.00;96023.16;6141178;23;20025;-76
2023/12/29 12:08:00;;;;;;;0.25;0.25;;;;;;;7.46;100.00;96026.66;6168485;23;20610;-76
2023/12/29 12:10:46;;;;;;;0.20;0.20;;;;;;;7.44;100.00;96015.44;6169213;23;20039;-75
2023/12/29 12:13:43;;;;;;;0.20;0.20;;;;;;;7.28;100.00;96029.53;6169801;23;20056;-76
2023/12/29 12:16:45;;;;;;;0.30;0.30;;;;;;;7.25;100.00;96019.38;6171929;23;20057;-76
2023/12/29 12:19:35;;;;;;;0.20;0.20;;;;;;;7.21;100.00;96012.88;6170501;23;20110;-76
2023/12/29 12:22:23;;;;;;;0.10;0.10;;;;;;;6.99;100.00;96021.53;6170699;23;20352;-77
2023/12/29 12:25:12;;;;;;;0.17;0.17;;;;;;;7.18;100.00;96013.38;6170629;23;20343;-74
2023/12/29 12:27:58;;;;;;;0.20;0.20;;;;;;;7.16;100.00;96010.13;6149055;23;20021;-77
2023/12/29 12:30:43;;;;;;;0.20;0.20;;;;;;;7.08;100.00;96014.00;6169625;23;20092;-75
2023/12/29 12:33:29;;;;;;;0.28;0.28;;;;;;;7.14;100.00;95998.91;6170942;23;20400;-75
2023/12/29 12:36:15;;;;;;;0.20;0.20;;;;;;;7.11;100.00;96002.88;6172770;23;20036;-76
2023/12/29 12:39:03;;;;;;;0.30;0.30;;;;;;;7.05;100.00;96008.31;6148373;23;20100;-76
2023/12/29 12:41:49;;;;;;;0.20;0.20;;;;;;;7.26;100.00;95989.03;6149249;23;20454;-74
2023/12/29 12:44:39;;;;;;;0.25;0.25;;;;;;;7.24;100.00;95983.16;6171352;23;20021;-75
2023/12/29 12:47:44;;;;;;;0.20;0.20;;;;;;;7.23;100.00;95986.84;6171220;23;20017;-77
2023/12/29 12:50:30;;;;;;;0.20;0.20;;;;;;;7.04;100.00;95980.09;6172861;23;20435;-75
2023/12/29 12:53:20;;;;;;;0.20;0.20;;;;;;;7.18;100.00;95997.41;6118514;23;20348;-76
2023/12/29 12:56:09;;;;;;;0.30;0.30;;;;;;;7.25;100.00;95988.25;6147470;23;20021;-76
2023/12/29 12:58:58;;;;;;;0.10;0.10;;;;;;;7.30;100.00;95984.03;6148127;23;20044;-75
2023/12/29 13:01:45;;;;;;;0.28;0.28;;;;;;;7.24;100.00;95988.47;6145989;23;20032;-75
2023/12/29 13:04:33;;;;;;;0.28;0.28;;;;;;;7.27;100.00;95980.00;6175446;23;20349;-75
2023/12/29 13:07:20;;;;;;;0.30;0.30;;;;;;;7.40;100.00;95979.72;6170511;23;20083;-75
2023/12/29 13:10:06;;;;;;;0.20;0.20;;;;;;;7.21;100.00;95965.00;6170899;23;20027;-75